Time;durP1;ratioP1;P1;durP2;ratioP2;P2;SDS_P1;SDS_P2;PMS_P1;PMS_P2;Temp;Humidity;BMP_temperature;BMP_pressure;BME280_temperature;BME280_humidity;BME280_pressure;Samples;Min_cycle;Max_cycle;Signal;HPM_P1;HPM_P2
2023/02/13 00:00:16;;;;;;;28.23;11.18;;;7.40;99.90;;;;;;5080194;28;20060;-79
2023/02/13 00:02:41;;;;;;;26.73;10.48;;;7.40;99.90;;;;;;5080311;28;20074;-79
2023/02/13 00:05:07;;;;;;;30.10;11.13;;;7.30;99.90;;;;;;5046481;28;20043;-79
2023/02/13 00:07:33;;;;;;;26.42;10.50;;;7.40;99.90;;;;;;5042559;28;20475;-79
2023/02/13 00:09:58;;;;;;;27.48;11.18;;;7.40;99.90;;;;;;5059990;28;20040;-79
2023/02/13 00:12:24;;;;;;;29.65;11.38;;;7.40;99.90;;;;;;5060408;28;20100;-79
2023/02/13 00:14:50;;;;;;;25.08;10.85;;;8.10;99.90;;;;;;5042576;28;20013;-79
2023/02/13 00:17:17;;;;;;;26.95;10.23;;;7.40;99.90;;;;;;5060192;28;20087;-78
2023/02/13 00:19:46;;;;;;;28.52;12.95;;;7.30;99.90;;;;;;5042096;28;20025;-79
2023/02/13 00:22:11;;;;;;;27.80;11.55;;;9.00;99.90;;;;;;5060402;28;20021;-79
2023/02/13 00:24:40;;;;;;;29.25;10.90;;;7.30;99.90;;;;;;5042114;28;20028;-78
2023/02/13 00:27:05;;;;;;;26.98;11.05;;;7.30;99.90;;;;;;5042090;28;20021;-79
2023/02/13 00:29:31;;;;;;;26.92;10.68;;;7.30;99.90;;;;;;5041451;28;20075;-79
2023/02/13 00:31:57;;;;;;;27.75;11.43;;;7.30;99.90;;;;;;5042097;28;20037;-79
2023/02/13 00:34:22;;;;;;;26.70;11.38;;;7.20;99.90;;;;;;5042166;28;20021;-79
2023/02/13 00:36:48;;;;;;;25.98;10.20;;;7.30;99.90;;;;;;5042127;28;20035;-79
2023/02/13 00:39:14;;;;;;;28.20;10.75;;;7.30;99.90;;;;;;5058127;28;20373;-79
2023/02/13 00:41:39;;;;;;;27.73;11.52;;;7.30;99.90;;;;;;5038467;28;20208;-79
2023/02/13 00:44:05;;;;;;;26.50;10.68;;;7.40;99.90;;;;;;5039024;28;20037;-78
2023/02/13 00:46:30;;;;;;;28.35;10.90;;;7.10;99.90;;;;;;5038939;28;20025;-79
2023/02/13 00:48:56;;;;;;;26.25;10.48;;;7.10;99.90;;;;;;5056864;28;20027;-78
2023/02/13 00:51:24;;;;;;;24.75;9.75;;;7.40;99.90;;;;;;5038674;28;20438;-79
2023/02/13 00:53:50;;;;;;;25.90;11.23;;;7.30;99.90;;;;;;5039015;28;20017;-79
2023/02/13 00:56:16;;;;;;;30.73;10.63;;;7.30;99.90;;;;;;5038920;28;20017;-79
2023/02/13 00:58:42;;;;;;;22.63;10.95;;;7.30;99.90;;;;;;5038054;28;20055;-79
2023/02/13 01:01:11;;;;;;;26.73;9.73;;;7.30;99.90;;;;;;5038608;28;20090;-79
2023/02/13 01:03:37;;;;;;;;;;;7.30;99.90;;;;;;5038896;28;20021;-79
2023/02/13 01:06:02;;;;;;;24.95;10.20;;;7.30;99.90;;;;;;5038477;28;19919;-79
2023/02/13 01:08:29;;;;;;;24.55;8.95;;;7.30;99.90;;;;;;5038460;28;20024;-79
2023/02/13 01:10:55;;;;;;;26.13;10.43;;;7.30;99.90;;;;;;5038141;28;20021;-79
2023/02/13 01:13:21;;;;;;;26.90;10.65;;;7.30;99.90;;;;;;5056211;28;20021;-79
2023/02/13 01:15:47;;;;;;;24.98;10.55;;;7.30;99.90;;;;;;5038158;28;20028;-79
2023/02/13 01:18:18;;;;;;;23.90;9.95;;;7.60;99.90;;;;;;5055896;28;20029;-79
2023/02/13 01:20:54;;;;;;;24.75;10.00;;;7.30;99.90;;;;;;5037924;28;20036;-78
2023/02/13 01:23:23;;;;;;;22.85;9.43;;;7.30;99.90;;;;;;5055882;28;20128;-79
2023/02/13 01:25:50;;;;;;;27.85;10.88;;;7.30;99.90;;;;;;5055875;28;20064;-79
2023/02/13 01:28:16;;;;;;;22.98;10.10;;;7.30;99.90;;;;;;5055850;28;20049;-79
2023/02/13 01:30:43;;;;;;;23.30;9.35;;;7.30;99.90;;;;;;5037962;28;20120;-79
2023/02/13 01:33:12;;;;;;;20.95;8.77;;;7.30;99.90;;;;;;5037423;28;20021;-79
2023/02/13 01:35:40;;;;;;;28.73;9.73;;;8.50;99.90;;;;;;5037290;28;20395;-79
2023/02/13 01:38:06;;;;;;;24.33;9.30;;;7.90;99.90;;;;;;5038115;28;20033;-78
2023/02/13 01:40:32;;;;;;;22.67;9.27;;;7.30;99.90;;;;;;5037788;28;20483;-79
2023/02/13 01:42:58;;;;;;;22.35;8.65;;;7.30;99.90;;;;;;5055726;28;20025;-79
2023/02/13 01:45:28;;;;;;;20.70;8.35;;;7.30;99.90;;;;;;5037487;28;20087;-78
2023/02/13 01:47:58;;;;;;;22.13;8.10;;;7.30;99.90;;;;;;5037521;28;20017;-78
2023/02/13 01:50:32;;;;;;;22.27;9.40;;;7.30;99.90;;;;;;5037296;28;20084;-79
2023/02/13 01:53:24;;;;;;;21.13;8.65;;;7.30;99.90;;;;;;5055195;28;20017;-79
2023/02/13 01:56:01;;;;;;;23.88;8.65;;;7.30;99.90;;;;;;5037264;28;20056;-78
2023/02/13 01:58:32;;;;;;;24.57;8.40;;;7.30;99.90;;;;;;5037592;28;20025;-79
2023/02/13 02:01:00;;;;;;;22.55;8.32;;;7.30;99.90;;;;;;5037374;28;20028;-78
2023/02/13 02:03:47;;;;;;;20.80;8.80;;;7.30;99.90;;;;;;5037169;28;20112;-78
2023/02/13 02:06:26;;;;;;;24.52;8.45;;;7.20;99.90;;;;;;5037288;28;20079;-78
2023/02/13 02:09:02;;;;;;;26.95;10.48;;;7.30;99.90;;;;;;5037705;28;20372;-79
2023/02/13 02:11:39;;;;;;;23.23;9.57;;;7.30;99.90;;;;;;5037145;28;20464;-78
2023/02/13 02:14:05;;;;;;;27.98;8.93;;;7.30;99.90;;;;;;5037335;28;20025;-78
2023/02/13 02:16:32;;;;;;;22.88;8.90;;;7.30;99.90;;;;;;5055103;28;20024;-78
2023/02/13 02:19:00;;;;;;;22.23;9.10;;;7.30;99.90;;;;;;5055074;28;20021;-79
2023/02/13 02:21:48;;;;;;;21.17;7.80;;;7.30;99.90;;;;;;5054533;28;20029;-78
2023/02/13 02:24:33;;;;;;;21.95;8.23;;;7.30;99.90;;;;;;5053827;23;20129;-78
2023/02/13 02:27:31;;;;;;;20.35;7.75;;;7.30;99.90;;;;;;5054037;28;20040;-78
2023/02/13 02:30:27;;;;;;;23.52;8.40;;;7.30;99.90;;;;;;5070164;28;20101;-78
2023/02/13 02:33:23;;;;;;;22.23;9.30;;;7.30;99.90;;;;;;5033486;28;20030;-78
2023/02/13 02:36:17;;;;;;;26.05;8.77;;;7.20;99.90;;;;;;5033249;28;20399;-78
2023/02/13 02:39:16;;;;;;;21.23;9.38;;;7.20;99.90;;;;;;5034805;28;20091;-78
2023/02/13 02:42:08;;;;;;;20.88;8.25;;;7.30;99.90;;;;;;5033239;28;20034;-78
2023/02/13 02:44:59;;;;;;;19.23;7.63;;;7.30;99.90;;;;;;5033343;28;20549;-78
2023/02/13 02:50:24;;;;;;;20.45;8.38;;;7.30;99.90;;;;;;5034424;28;20392;-78
2023/02/13 02:53:04;;;;;;;22.58;8.73;;;7.30;99.90;;;;;;5034391;28;20057;-77
2023/02/13 02:55:30;;;;;;;21.45;8.20;;;7.30;99.90;;;;;;5049518;28;20108;-78
2023/02/13 03:06:28;;;;;;;20.70;7.00;;;7.30;99.90;;;;;;5034331;28;20032;-78
2023/02/13 03:14:33;;;;;;;23.05;8.65;;;7.20;99.90;;;;;;5003033;28;20409;-78
2023/02/13 03:22:44;;;;;;;22.10;8.30;;;7.30;99.90;;;;;;5034074;28;20411;-78
2023/02/13 03:25:36;;;;;;;20.27;8.55;;;7.20;99.90;;;;;;5048452;28;20115;-78
2023/02/13 03:31:42;;;;;;;22.63;8.05;;;7.20;99.90;;;;;;5033705;28;20040;-78
2023/02/13 03:34:12;;;;;;;23.63;8.82;;;7.20;99.90;;;;;;5034116;28;20068;-78
2023/02/13 03:39:57;;;;;;;20.58;7.63;;;7.20;99.90;;;;;;5034051;28;20036;-78
2023/02/13 03:42:51;;;;;;;23.23;8.68;;;7.20;99.90;;;;;;5049167;28;20033;-78
2023/02/13 03:50:04;;;;;;;21.05;7.63;;;7.20;99.90;;;;;;5034057;28;20025;-78
2023/02/13 03:50:57;;;;;;;21.80;8.20;;;7.30;99.90;;;;;;5033290;28;20029;-78
2023/02/13 03:53:24;;;;;;;23.27;8.10;;;7.30;99.90;;;;;;5033543;28;20030;-78
2023/02/13 04:01:35;;;;;;;28.65;8.75;;;7.30;99.90;;;;;;5033549;28;20045;-78
2023/02/13 04:04:27;;;;;;;21.38;7.38;;;7.20;99.90;;;;;;5033952;28;20028;-78
2023/02/13 04:07:04;;;;;;;22.02;8.43;;;7.20;99.90;;;;;;5033561;28;20026;-78
2023/02/13 04:09:31;;;;;;;24.98;8.45;;;7.20;99.90;;;;;;5033438;28;20033;-78
2023/02/13 04:12:24;;;;;;;20.70;8.85;;;7.20;99.90;;;;;;5033357;28;20025;-78
2023/02/13 04:15:05;;;;;;;20.00;8.13;;;7.20;99.90;;;;;;5033583;28;20018;-78
2023/02/13 04:17:39;;;;;;;22.80;7.63;;;7.20;99.90;;;;;;5037447;28;20108;-79
2023/02/13 04:20:06;;;;;;;20.63;7.70;;;7.20;99.90;;;;;;5035915;28;20120;-78
2023/02/13 04:22:32;;;;;;;23.05;8.50;;;7.20;99.90;;;;;;5036909;28;20021;-78
2023/02/13 04:24:57;;;;;;;21.40;8.32;;;7.10;99.90;;;;;;5037197;28;20025;-78
2023/02/13 04:27:26;;;;;;;23.10;8.27;;;7.10;99.90;;;;;;5036672;28;20476;-78
2023/02/13 04:29:52;;;;;;;23.45;9.77;;;7.10;99.90;;;;;;5035666;28;20388;-78
2023/02/13 04:32:18;;;;;;;21.17;7.18;;;7.10;99.90;;;;;;5036770;28;20048;-79
2023/02/13 04:34:43;;;;;;;21.00;7.85;;;7.10;99.90;;;;;;5035588;28;20034;-79
2023/02/13 04:37:09;;;;;;;18.67;7.88;;;7.10;99.90;;;;;;5036719;28;20057;-78
2023/02/13 04:39:34;;;;;;;24.00;8.68;;;7.10;99.90;;;;;;5036725;28;20028;-78
2023/02/13 04:42:00;;;;;;;22.92;7.28;;;7.10;99.90;;;;;;5036566;28;20033;-78
2023/02/13 04:44:25;;;;;;;18.80;6.45;;;7.10;99.90;;;;;;5036096;28;20037;-78
2023/02/13 04:46:52;;;;;;;20.17;7.88;;;7.10;99.90;;;;;;5036245;28;20026;-78
2023/02/13 04:49:21;;;;;;;21.48;7.88;;;7.10;99.90;;;;;;5036886;28;20030;-79
2023/02/13 04:51:46;;;;;;;20.23;7.32;;;7.10;99.90;;;;;;5036195;28;20021;-78
2023/02/13 04:54:12;;;;;;;18.95;7.10;;;7.10;99.90;;;;;;5036524;28;20053;-78
2023/02/13 04:56:38;;;;;;;19.20;7.10;;;7.10;99.90;;;;;;5051765;28;20028;-78
2023/02/13 04:59:03;;;;;;;21.75;8.38;;;7.10;99.90;;;;;;5036212;28;20104;-78
2023/02/13 05:01:29;;;;;;;21.08;8.23;;;7.10;99.90;;;;;;5034775;28;20022;-78
2023/02/13 05:03:54;;;;;;;21.27;7.93;;;7.10;99.90;;;;;;5034935;28;20034;-78
2023/02/13 05:06:20;;;;;;;21.67;7.85;;;7.30;99.90;;;;;;5033579;28;20053;-78
2023/02/13 05:08:46;;;;;;;23.42;8.68;;;7.10;99.90;;;;;;5034910;28;20022;-78
2023/02/13 05:11:11;;;;;;;24.92;8.57;;;7.10;99.90;;;;;;5034867;28;20021;-78
2023/02/13 05:13:37;;;;;;;27.60;9.73;;;7.00;99.90;;;;;;5034170;28;20384;-78
2023/02/13 05:16:06;;;;;;;26.10;7.95;;;7.00;99.90;;;;;;5034764;28;20025;-78
2023/02/13 05:18:31;;;;;;;19.77;7.72;;;7.00;99.90;;;;;;5034921;28;20021;-78
2023/02/13 05:23:41;;;;;;;23.50;7.65;;;7.00;99.90;;;;;;5036375;28;20049;-78
2023/02/13 05:26:06;;;;;;;21.05;9.07;;;7.00;99.90;;;;;;5034306;28;20033;-78
2023/02/13 05:31:16;;;;;;;20.30;7.75;;;7.00;99.90;;;;;;5036190;28;20111;-78
2023/02/13 05:33:41;;;;;;;24.98;9.07;;;7.00;99.90;;;;;;5034787;28;20435;-78
2023/02/13 05:36:07;;;;;;;24.70;9.73;;;7.00;99.90;;;;;;5035855;28;20022;-78
2023/02/13 05:38:33;;;;;;;24.50;9.07;;;7.10;99.90;;;;;;5035926;28;20021;-78
2023/02/13 05:41:00;;;;;;;24.95;9.10;;;7.00;99.90;;;;;;5034043;28;20539;-78
2023/02/13 05:43:26;;;;;;;25.65;8.95;;;7.00;99.90;;;;;;5034245;28;20480;-78
2023/02/13 05:46:04;;;;;;;26.55;10.25;;;7.00;99.90;;;;;;5034564;28;20024;-78
2023/02/13 05:48:30;;;;;;;23.38;9.68;;;7.00;99.90;;;;;;5035621;28;20025;-78
2023/02/13 05:50:55;;;;;;;24.15;9.10;;;7.00;99.90;;;;;;5034327;28;20030;-78
2023/02/13 05:53:21;;;;;;;23.88;9.45;;;7.00;99.90;;;;;;5035549;28;20022;-78
2023/02/13 05:55:46;;;;;;;21.83;8.38;;;7.00;99.90;;;;;;5033641;28;20029;-78
2023/02/13 05:58:12;;;;;;;26.17;9.30;;;7.00;99.90;;;;;;5034112;28;20036;-78
2023/02/13 06:00:37;;;;;;;22.80;9.00;;;7.00;99.90;;;;;;5033812;28;20021;-78
2023/02/13 06:03:03;;;;;;;27.40;9.02;;;7.10;99.90;;;;;;5034078;28;20373;-78
2023/02/13 06:05:29;;;;;;;23.98;9.55;;;7.10;99.90;;;;;;5034077;28;20021;-78
2023/02/13 06:07:54;;;;;;;21.38;8.70;;;7.10;99.90;;;;;;5033786;28;20022;-78
2023/02/13 06:10:20;;;;;;;25.73;9.75;;;7.60;99.90;;;;;;5033778;28;20025;-78
2023/02/13 06:12:45;;;;;;;30.58;9.50;;;7.00;99.90;;;;;;5033884;28;20105;-78
2023/02/13 06:15:11;;;;;;;27.67;9.63;;;7.10;99.90;;;;;;5034096;28;20462;-78
2023/02/13 06:17:37;;;;;;;24.48;8.40;;;7.10;99.90;;;;;;5033833;28;20569;-78
2023/02/13 06:20:03;;;;;;;23.63;8.93;;;7.20;99.90;;;;;;5033842;28;20021;-78
2023/02/13 06:22:29;;;;;;;22.90;9.18;;;7.10;99.90;;;;;;5034590;28;20029;-79
2023/02/13 06:24:54;;;;;;;22.73;8.32;;;8.40;99.90;;;;;;5033025;28;20052;-78
2023/02/13 06:27:20;;;;;;;26.25;10.35;;;7.10;99.90;;;;;;5033595;28;20057;-78
2023/02/13 06:29:45;;;;;;;22.65;9.10;;;8.30;99.90;;;;;;5034796;28;20021;-77
2023/02/13 06:32:11;;;;;;;24.42;9.70;;;7.10;99.90;;;;;;5034796;28;20037;-78
2023/02/13 06:34:36;;;;;;;23.85;9.70;;;7.10;99.90;;;;;;5033613;28;20034;-77
2023/02/13 06:37:02;;;;;;;24.98;9.00;;;7.20;99.90;;;;;;5032994;28;20060;-78
2023/02/13 06:39:27;;;;;;;23.83;9.50;;;7.10;99.90;;;;;;5034611;28;20029;-78
2023/02/13 06:41:53;;;;;;;24.77;9.00;;;7.10;99.90;;;;;;5034521;28;20143;-78
2023/02/13 06:44:18;;;;;;;26.73;9.65;;;7.20;99.90;;;;;;5034330;28;20115;-78
2023/02/13 06:46:44;;;;;;;23.38;9.52;;;7.30;99.90;;;;;;5033463;28;20034;-78
2023/02/13 06:49:10;;;;;;;26.08;9.68;;;7.20;99.90;;;;;;5033551;28;20021;-78
2023/02/13 06:51:35;;;;;;;27.00;9.15;;;7.20;99.90;;;;;;5033140;28;20567;-78
2023/02/13 06:54:01;;;;;;;28.83;11.45;;;7.30;99.90;;;;;;5034020;28;20022;-78
2023/02/13 06:56:27;;;;;;;22.98;9.25;;;7.20;99.90;;;;;;5034467;28;20400;-78
2023/02/13 06:58:52;;;;;;;23.60;8.93;;;7.20;99.90;;;;;;5033358;28;20041;-77
2023/02/13 07:01:18;;;;;;;24.58;9.75;;;7.20;99.90;;;;;;5034399;28;20076;-76
2023/02/13 07:03:44;;;;;;;25.80;10.63;;;7.20;99.90;;;;;;5034313;28;20035;-77
2023/02/13 07:06:09;;;;;;;26.55;10.07;;;7.20;99.90;;;;;;5033025;28;20076;-77
2023/02/13 07:08:35;;;;;;;24.58;9.25;;;7.20;99.90;;;;;;5034034;28;20033;-77
2023/02/13 07:11:01;;;;;;;23.63;9.07;;;7.20;99.90;;;;;;5032909;28;20014;-77
2023/02/13 07:13:26;;;;;;;25.67;9.02;;;7.20;99.90;;;;;;5032903;28;20591;-77
2023/02/13 07:15:52;;;;;;;28.90;9.95;;;7.20;99.90;;;;;;5034588;28;20026;-77
2023/02/13 07:18:17;;;;;;;28.42;9.98;;;7.20;99.90;;;;;;5032737;28;20037;-77
2023/02/13 07:20:43;;;;;;;26.40;10.52;;;7.20;99.90;;;;;;5034224;28;20468;-77
2023/02/13 07:23:09;;;;;;;26.65;9.88;;;7.10;99.90;;;;;;5032195;28;20480;-77
2023/02/13 07:25:35;;;;;;;28.98;10.57;;;7.10;99.90;;;;;;5033867;28;20065;-77
2023/02/13 07:28:02;;;;;;;29.08;11.00;;;7.00;99.90;;;;;;5033848;28;20542;-77
2023/02/13 07:30:29;;;;;;;28.42;12.30;;;7.00;99.90;;;;;;5032627;28;20168;-77
2023/02/13 07:33:03;;;;;;;25.13;10.90;;;7.00;99.90;;;;;;5034160;28;20021;-77
2023/02/13 07:35:29;;;;;;;26.30;10.05;;;7.00;99.90;;;;;;5034269;28;20116;-77
2023/02/13 07:37:54;;;;;;;26.38;9.77;;;7.00;99.90;;;;;;5034002;28;20057;-77
2023/02/13 07:40:21;;;;;;;28.35;11.13;;;6.90;99.90;;;;;;5033706;28;20040;-77
2023/02/13 07:42:49;;;;;;;24.92;9.95;;;6.90;99.90;;;;;;5032759;28;20024;-76
2023/02/13 07:45:15;;;;;;;31.20;10.85;;;8.20;99.90;;;;;;5032683;28;20591;-76
2023/02/13 07:47:41;;;;;;;28.85;10.77;;;6.90;99.90;;;;;;5032402;28;20029;-76
2023/02/13 07:50:08;;;;;;;26.23;11.07;;;6.90;99.90;;;;;;5037059;28;20026;-76
2023/02/13 07:52:33;;;;;;;30.17;10.80;;;6.80;99.90;;;;;;5037866;28;20656;-76
2023/02/13 07:54:59;;;;;;;31.25;11.15;;;6.80;99.90;;;;;;5037728;28;20023;-76
2023/02/13 07:57:24;;;;;;;35.75;11.35;;;6.90;99.90;;;;;;5037012;28;20051;-76
2023/02/13 07:59:50;;;;;;;31.20;11.48;;;6.80;99.90;;;;;;5037985;28;20060;-76
2023/02/13 08:02:15;;;;;;;27.10;10.68;;;6.90;99.90;;;;;;5037597;28;20017;-76
2023/02/13 08:04:45;;;;;;;29.98;11.18;;;6.90;99.90;;;;;;5037813;28;20022;-76
2023/02/13 08:07:11;;;;;;;30.13;11.25;;;6.90;99.90;;;;;;5037036;28;20021;-76
2023/02/13 08:12:21;;;;;;;31.60;12.10;;;7.00;99.90;;;;;;5037445;28;20036;-76
2023/02/13 08:14:46;;;;;;;31.05;12.07;;;7.00;99.90;;;;;;5037835;28;20025;-76
2023/02/13 08:17:12;;;;;;;30.88;11.75;;;7.10;99.90;;;;;;5037308;28;20033;-76
2023/02/13 08:19:37;;;;;;;31.15;12.20;;;7.20;99.90;;;;;;5035510;28;20028;-76
2023/02/13 08:22:03;;;;;;;28.67;11.15;;;7.20;99.90;;;;;;5037033;28;20029;-76
2023/02/13 08:24:29;;;;;;;29.58;11.93;;;7.30;99.90;;;;;;5035719;28;20037;-76
2023/02/13 08:26:55;;;;;;;33.13;11.77;;;7.30;99.90;;;;;;5037405;28;20018;-77
2023/02/13 08:29:21;;;;;;;29.23;11.25;;;7.40;99.90;;;;;;5036842;28;20017;-78
2023/02/13 08:31:46;;;;;;;28.85;11.18;;;7.40;99.90;;;;;;5036459;28;20021;-76
2023/02/13 08:34:12;;;;;;;25.33;10.23;;;7.40;99.90;;;;;;5036855;28;20049;-77
2023/02/13 08:36:37;;;;;;;25.77;10.50;;;7.60;99.90;;;;;;5035156;28;20400;-76
2023/02/13 08:39:03;;;;;;;31.48;11.88;;;7.60;99.90;;;;;;5036714;28;20025;-77
2023/02/13 08:41:28;;;;;;;29.85;10.73;;;7.70;99.90;;;;;;5036807;28;20076;-76
2023/02/13 08:43:54;;;;;;;26.58;10.60;;;7.70;99.90;;;;;;5036650;28;20025;-76
2023/02/13 08:46:20;;;;;;;28.83;11.05;;;7.70;99.90;;;;;;5036722;28;20037;-77
2023/02/13 08:48:45;;;;;;;30.13;11.43;;;7.80;99.90;;;;;;5036505;28;20028;-76
2023/02/13 08:51:12;;;;;;;28.70;11.20;;;8.20;99.90;;;;;;5036269;28;20022;-77
2023/02/13 08:53:38;;;;;;;24.95;10.30;;;7.90;99.90;;;;;;5036955;28;20409;-77
2023/02/13 08:56:04;;;;;;;27.58;11.45;;;7.90;99.90;;;;;;5035109;28;20030;-77
2023/02/13 08:58:30;;;;;;;30.48;12.15;;;8.00;99.90;;;;;;5034980;28;20061;-77
2023/02/13 09:00:56;;;;;;;28.48;11.27;;;8.10;99.90;;;;;;5035169;28;20048;-77
2023/02/13 09:03:22;;;;;;;26.20;11.38;;;8.30;99.90;;;;;;5036625;28;20166;-77
2023/02/13 09:05:50;;;;;;;28.55;11.32;;;8.20;99.90;;;;;;5036295;28;20091;-76
2023/02/13 09:08:16;;;;;;;26.75;10.77;;;8.30;99.90;;;;;;5035929;28;20022;-77
2023/02/13 09:10:45;;;;;;;27.42;11.18;;;8.30;99.90;;;;;;5036273;28;20022;-76
2023/02/13 09:13:11;;;;;;;29.95;11.38;;;8.40;99.90;;;;;;5035800;28;20079;-77
2023/02/13 09:15:39;;;;;;;26.63;9.70;;;8.50;99.90;;;;;;5036501;28;20035;-77
2023/02/13 09:18:05;;;;;;;25.70;11.30;;;8.50;99.90;;;;;;5034724;28;20028;-77
2023/02/13 09:20:31;;;;;;;28.05;10.73;;;8.50;99.90;;;;;;5035609;28;20030;-76
2023/02/13 09:22:56;;;;;;;24.42;10.00;;;8.50;99.90;;;;;;5035575;28;20060;-76
2023/02/13 09:25:22;;;;;;;28.33;9.93;;;8.90;99.90;;;;;;5034474;28;20079;-76
2023/02/13 09:27:47;;;;;;;23.42;10.25;;;8.60;99.90;;;;;;5035696;28;20017;-77
2023/02/13 09:30:21;;;;;;;23.13;9.85;;;8.70;99.90;;;;;;5035926;28;20044;-77
2023/02/13 09:32:48;;;;;;;24.02;8.60;;;8.70;99.90;;;;;;5036183;28;20017;-78
2023/02/13 09:35:13;;;;;;;18.67;7.95;;;8.80;99.90;;;;;;5034052;28;20108;-76
2023/02/13 09:37:39;;;;;;;23.50;9.15;;;8.90;99.90;;;;;;5035345;28;20053;-76
2023/02/13 09:40:15;;;;;;;22.20;8.50;;;9.00;99.90;;;;;;5035458;28;20100;-76
2023/02/13 09:42:41;;;;;;;23.70;9.50;;;9.00;99.90;;;;;;5034947;28;20037;-76
2023/02/13 09:45:11;;;;;;;19.27;8.13;;;9.10;99.90;;;;;;5034012;28;20080;-76
2023/02/13 09:47:40;;;;;;;21.83;9.63;;;9.10;99.90;;;;;;5033987;28;20040;-76
2023/02/13 09:50:30;;;;;;;25.60;9.52;;;9.30;99.90;;;;;;5033913;28;20028;-76
2023/02/13 09:52:57;;;;;;;20.70;9.80;;;9.20;99.90;;;;;;5035204;28;20480;-76
2023/02/13 09:55:51;;;;;;;23.92;9.73;;;9.10;99.90;;;;;;5035162;28;20042;-76
2023/02/13 09:58:38;;;;;;;20.52;9.20;;;9.10;99.90;;;;;;5035758;28;20017;-76
2023/02/13 10:01:12;;;;;;;19.92;8.27;;;9.10;99.90;;;;;;5034866;28;20033;-76
2023/02/13 10:04:23;;;;;;;20.38;8.18;;;9.10;99.90;;;;;;5035186;28;20369;-77
2023/02/13 10:06:58;;;;;;;20.40;8.90;;;9.20;99.90;;;;;;5033462;28;20392;-76
2023/02/13 10:09:46;;;;;;;20.75;9.43;;;9.30;99.90;;;;;;5035285;28;20017;-76
2023/02/13 10:12:29;;;;;;;22.52;8.52;;;9.40;99.90;;;;;;5033695;28;20021;-76
2023/02/13 10:15:11;;;;;;;19.50;8.23;;;9.50;99.90;;;;;;5033257;28;20052;-77
2023/02/13 10:17:46;;;;;;;18.38;7.82;;;9.60;99.90;;;;;;5034992;28;20534;-76
2023/02/13 10:20:51;;;;;;;21.83;8.93;;;9.70;99.90;;;;;;5033038;28;20108;-76
2023/02/13 10:23:39;;;;;;;18.23;7.78;;;9.70;99.90;;;;;;4973675;28;20070;-76
2023/02/13 10:26:11;;;;;;;18.27;7.32;;;9.80;99.90;;;;;;5032956;28;20037;-76
2023/02/13 10:28:42;;;;;;;18.20;7.85;;;9.80;99.90;;;;;;5034506;28;20022;-76
2023/02/13 10:31:14;;;;;;;18.92;8.40;;;9.90;99.90;;;;;;5034358;28;20025;-77
2023/02/13 10:33:47;;;;;;;19.92;8.02;;;10.00;99.90;;;;;;5034328;28;20496;-77
2023/02/13 10:36:24;;;;;;;19.58;7.75;;;10.00;99.90;;;;;;5034617;28;20081;-77
2023/02/13 10:38:59;;;;;;;20.08;7.43;;;10.10;99.90;;;;;;5034905;28;20492;-77
2023/02/13 10:41:43;;;;;;;22.38;8.13;;;10.10;99.90;;;;;;5034017;28;20052;-76
2023/02/13 10:44:37;;;;;;;21.75;8.30;;;10.20;99.90;;;;;;5033004;28;20030;-76
2023/02/13 10:47:14;;;;;;;21.20;8.52;;;10.30;99.90;;;;;;5033158;28;20021;-76
2023/02/13 10:49:42;;;;;;;17.00;8.00;;;10.40;99.90;;;;;;5034768;28;20060;-77
2023/02/13 10:52:51;;;;;;;20.50;8.70;;;10.40;99.90;;;;;;5032902;28;20387;-77
2023/02/13 10:55:40;;;;;;;19.25;8.18;;;10.40;99.90;;;;;;5034657;28;20026;-77
2023/02/13 10:58:12;;;;;;;17.63;7.85;;;10.50;99.90;;;;;;5032647;28;20068;-76
2023/02/13 11:01:05;;;;;;;18.27;6.88;;;10.60;99.90;;;;;;5034354;28;20476;-77
2023/02/13 11:03:31;;;;;;;20.38;8.35;;;10.60;99.90;;;;;;5032471;28;20029;-77
2023/02/13 11:06:00;;;;;;;18.83;7.82;;;10.70;99.90;;;;;;5032641;28;20075;-76
2023/02/13 11:08:29;;;;;;;16.98;6.60;;;10.70;99.90;;;;;;5032694;28;20018;-77
2023/02/13 11:10:55;;;;;;;18.42;7.35;;;10.70;99.90;;;;;;5033756;28;20037;-76
2023/02/13 11:13:23;;;;;;;19.15;8.75;;;10.70;99.90;;;;;;5032791;28;20404;-77
2023/02/13 11:15:59;;;;;;;20.10;7.83;;;10.80;99.90;;;;;;5033901;28;20029;-77
2023/02/13 11:18:27;;;;;;;18.38;7.68;;;10.90;99.90;;;;;;5032646;28;20454;-77
2023/02/13 11:21:07;;;;;;;15.20;7.38;;;11.00;99.90;;;;;;5033310;28;20074;-76
2023/02/13 11:23:33;;;;;;;16.33;6.63;;;11.00;99.90;;;;;;5031797;28;20037;-77
2023/02/13 11:26:20;;;;;;;17.05;7.25;;;11.20;99.90;;;;;;5032246;28;20087;-77
2023/02/13 11:28:50;;;;;;;17.15;7.55;;;11.20;99.90;;;;;;5033302;28;20476;-76
2023/02/13 11:31:26;;;;;;;16.77;6.93;;;11.20;99.90;;;;;;5033429;28;20026;-77
2023/02/13 11:33:52;;;;;;;20.83;7.28;;;11.30;99.90;;;;;;5033984;28;20053;-77
2023/02/13 11:36:32;;;;;;;14.13;6.57;;;11.40;99.90;;;;;;5034031;28;20053;-77
2023/02/13 11:39:03;;;;;;;19.08;7.80;;;11.50;99.90;;;;;;5032027;28;20033;-77
2023/02/13 11:41:42;;;;;;;16.17;7.35;;;11.60;99.90;;;;;;5031987;28;20032;-77
2023/02/13 11:44:30;;;;;;;16.42;7.63;;;11.50;99.90;;;;;;5033348;28;20033;-77
2023/02/13 11:47:00;;;;;;;18.87;7.47;;;11.50;99.90;;;;;;5033253;28;20029;-77
2023/02/13 11:49:33;;;;;;;13.95;7.25;;;11.60;99.90;;;;;;5033108;28;20272;-77
2023/02/13 11:52:01;;;;;;;20.42;7.60;;;11.70;99.90;;;;;;5033235;28;20048;-77
2023/02/13 11:54:39;;;;;;;13.15;6.32;;;11.80;99.90;;;;;;5033680;28;20060;-77
2023/02/13 11:57:27;;;;;;;16.07;7.37;;;11.80;99.90;;;;;;5031706;28;20030;-77
2023/02/13 11:59:53;;;;;;;17.50;7.73;;;12.00;99.90;;;;;;5033262;28;20268;-77
2023/02/13 12:02:25;;;;;;;17.40;7.50;;;12.20;99.90;;;;;;5032845;28;20037;-77
2023/02/13 12:04:53;;;;;;;17.77;7.05;;;12.20;99.90;;;;;;5033246;28;20025;-77
2023/02/13 12:07:32;;;;;;;14.82;6.38;;;12.20;99.90;;;;;;5031764;28;20021;-77
2023/02/13 12:10:19;;;;;;;14.45;6.35;;;12.30;99.90;;;;;;5031809;28;20025;-77
2023/02/13 12:13:31;;;;;;;13.85;6.30;;;12.40;99.90;;;;;;5031733;28;20531;-77
2023/02/13 12:16:05;;;;;;;17.10;6.80;;;12.50;99.90;;;;;;5031821;28;20029;-77
2023/02/13 12:18:38;;;;;;;15.15;6.60;;;12.60;99.90;;;;;;5032993;28;20021;-77
2023/02/13 12:21:08;;;;;;;15.15;6.95;;;12.60;99.90;;;;;;5032866;28;20411;-77
2023/02/13 12:24:10;;;;;;;17.38;7.32;;;12.80;99.90;;;;;;5032916;28;20045;-77
2023/02/13 12:27:12;;;;;;;13.35;7.10;;;12.90;99.90;;;;;;5031452;28;20492;-77
2023/02/13 12:30:11;;;;;;;16.65;6.22;;;13.10;99.90;;;;;;5030232;28;20042;-77
2023/02/13 12:33:17;;;;;;;14.88;6.38;;;13.30;99.90;;;;;;5031665;28;20029;-77
2023/02/13 12:36:00;;;;;;;14.00;6.95;;;13.40;99.90;;;;;;5032708;28;20033;-77
2023/02/13 12:38:45;;;;;;;13.73;6.93;;;13.50;99.90;;;;;;5035631;28;20057;-77
2023/02/13 12:41:47;;;;;;;14.20;6.45;;;13.40;99.90;;;;;;5035152;28;20116;-77
2023/02/13 12:44:25;;;;;;;16.05;6.05;;;13.30;99.90;;;;;;5036408;28;20544;-77
2023/02/13 12:47:16;;;;;;;14.32;7.03;;;13.50;99.90;;;;;;5036500;28;20040;-77
2023/02/13 12:49:45;;;;;;;13.98;7.38;;;13.60;99.90;;;;;;5036215;28;20049;-77
2023/02/13 12:52:13;;;;;;;14.23;6.57;;;13.70;99.90;;;;;;5034790;28;20099;-77
2023/02/13 12:54:49;;;;;;;14.52;6.28;;;13.80;99.90;;;;;;5034836;28;20060;-77
2023/02/13 12:57:52;;;;;;;12.55;6.53;;;13.90;99.90;;;;;;5036694;28;20067;-77
2023/02/13 13:00:39;;;;;;;15.70;7.20;;;14.20;99.90;;;;;;5036523;28;20436;-77
2023/02/13 13:03:43;;;;;;;15.95;6.70;;;14.30;99.90;;;;;;5035740;28;20060;-77
2023/02/13 13:06:14;;;;;;;15.93;6.18;;;14.30;99.90;;;;;;4958659;28;20037;-77
2023/02/13 13:09:00;;;;;;;15.52;6.60;;;14.50;99.90;;;;;;4975550;28;20035;-77
2023/02/13 13:11:42;;;;;;;14.13;6.43;;;14.60;99.90;;;;;;5014068;28;20039;-77
2023/02/13 13:14:18;;;;;;;11.73;6.15;;;14.70;99.90;;;;;;5036256;28;20028;-77
2023/02/13 13:17:10;;;;;;;16.30;7.20;;;14.70;99.90;;;;;;5036309;28;20032;-77
2023/02/13 13:20:13;;;;;;;11.23;5.57;;;14.50;99.90;;;;;;5035845;28;20025;-77
2023/02/13 13:23:10;;;;;;;14.45;5.70;;;14.60;99.90;;;;;;5034495;28;20405;-77
2023/02/13 13:25:38;;;;;;;15.77;6.25;;;14.80;99.90;;;;;;5034364;28;20064;-77
2023/02/13 13:28:14;;;;;;;16.13;5.40;;;15.00;99.90;;;;;;5036243;28;20025;-77
2023/02/13 13:30:42;;;;;;;13.48;6.03;;;15.10;99.90;;;;;;5034516;28;20040;-77
2023/02/13 13:33:14;;;;;;;14.93;6.72;;;15.10;99.90;;;;;;5035466;28;20542;-77
2023/02/13 13:35:49;;;;;;;15.20;6.35;;;15.30;99.90;;;;;;5036091;28;20108;-77
2023/02/13 13:38:24;;;;;;;13.02;6.07;;;15.40;99.90;;;;;;5035516;28;20100;-77
2023/02/13 13:40:57;;;;;;;14.70;6.60;;;15.50;99.90;;;;;;5034039;28;20464;-77
2023/02/13 13:43:33;;;;;;;12.93;6.10;;;15.50;99.90;;;;;;5035197;28;20017;-77
2023/02/13 13:46:10;;;;;;;15.93;6.40;;;15.70;99.90;;;;;;5033471;28;20113;-77
2023/02/13 13:49:01;;;;;;;11.75;6.22;;;15.60;99.90;;;;;;5035010;28;20021;-77
2023/02/13 13:51:26;;;;;;;13.93;6.60;;;15.50;99.90;;;;;;5034986;28;20029;-77
2023/02/13 13:54:04;;;;;;;13.02;6.22;;;15.50;99.90;;;;;;5034837;28;20024;-76